sensor_id;sensor_type;location;lat;lon;timestamp;temperature;humidity
22698;DHT22;11516;51.612;7.510;2023-05-16T00:01:13;11.40;99.90
22698;DHT22;11516;51.612;7.510;2023-05-16T00:03:40;11.40;99.90
22698;DHT22;11516;51.612;7.510;2023-05-16T00:06:07;11.40;99.90
22698;DHT22;11516;51.612;7.510;2023-05-16T00:08:33;11.40;99.90
22698;DHT22;11516;51.612;7.510;2023-05-16T00:10:59;11.40;99.90
22698;DHT22;11516;51.612;7.510;2023-05-16T00:13:26;11.30;99.90
22698;DHT22;11516;51.612;7.510;2023-05-16T00:15:53;11.30;99.90
22698;DHT22;11516;51.612;7.510;2023-05-16T00:18:21;11.30;99.90
22698;DHT22;11516;51.612;7.510;2023-05-16T00:20:50;11.40;99.90
22698;DHT22;11516;51.612;7.510;2023-05-16T00:23:17;11.40;99.90
22698;DHT22;11516;51.612;7.510;2023-05-16T00:25:43;11.30;99.90
22698;DHT22;11516;51.612;7.510;2023-05-16T00:28:09;11.30;99.90
22698;DHT22;11516;51.612;7.510;2023-05-16T00:30:34;11.30;99.90
22698;DHT22;11516;51.612;7.510;2023-05-16T00:33:00;11.30;99.90
22698;DHT22;11516;51.612;7.510;2023-05-16T00:35:26;11.30;99.90
22698;DHT22;11516;51.612;7.510;2023-05-16T00:37:52;11.30;99.90
22698;DHT22;11516;51.612;7.510;2023-05-16T00:40:17;11.20;99.90
22698;DHT22;11516;51.612;7.510;2023-05-16T00:42:43;11.20;99.90
22698;DHT22;11516;51.612;7.510;2023-05-16T00:45:09;11.20;99.90
22698;DHT22;11516;51.612;7.510;2023-05-16T00:47:35;11.20;99.90
22698;DHT22;11516;51.612;7.510;2023-05-16T00:50:01;11.10;99.90
22698;DHT22;11516;51.612;7.510;2023-05-16T00:52:29;11.00;99.90
22698;DHT22;11516;51.612;7.510;2023-05-16T00:54:56;11.00;99.90
22698;DHT22;11516;51.612;7.510;2023-05-16T00:57:21;11.00;99.90
22698;DHT22;11516;51.612;7.510;2023-05-16T00:59:47;10.90;99.90
22698;DHT22;11516;51.612;7.510;2023-05-16T01:02:13;10.90;99.90
22698;DHT22;11516;51.612;7.510;2023-05-16T01:04:39;10.80;99.90
22698;DHT22;11516;51.612;7.510;2023-05-16T01:07:05;10.90;99.90
22698;DHT22;11516;51.612;7.510;2023-05-16T01:09:31;10.90;99.90
22698;DHT22;11516;51.612;7.510;2023-05-16T01:14:55;10.80;99.90
22698;DHT22;11516;51.612;7.510;2023-05-16T01:20:10;10.80;99.90
22698;DHT22;11516;51.612;7.510;2023-05-16T01:22:58;10.80;99.90
22698;DHT22;11516;51.612;7.510;2023-05-16T01:25:55;10.70;99.90
22698;DHT22;11516;51.612;7.510;2023-05-16T01:28:22;10.60;99.90
22698;DHT22;11516;51.612;7.510;2023-05-16T01:30:50;10.40;99.90
22698;DHT22;11516;51.612;7.510;2023-05-16T01:33:16;10.40;99.90
22698;DHT22;11516;51.612;7.510;2023-05-16T01:39:08;10.40;99.90
22698;DHT22;11516;51.612;7.510;2023-05-16T01:41:52;10.30;99.90
22698;DHT22;11516;51.612;7.510;2023-05-16T01:44:34;10.10;99.90
22698;DHT22;11516;51.612;7.510;2023-05-16T01:47:08;10.00;99.90
22698;DHT22;11516;51.612;7.510;2023-05-16T01:49:40;10.00;99.90
22698;DHT22;11516;51.612;7.510;2023-05-16T01:52:14;10.00;99.90
22698;DHT22;11516;51.612;7.510;2023-05-16T01:54:43;9.90;99.90
22698;DHT22;11516;51.612;7.510;2023-05-16T01:57:10;9.80;99.90
22698;DHT22;11516;51.612;7.510;2023-05-16T01:59:38;9.70;99.90
22698;DHT22;11516;51.612;7.510;2023-05-16T02:02:04;9.60;99.90
22698;DHT22;11516;51.612;7.510;2023-05-16T02:04:30;9.40;99.90
22698;DHT22;11516;51.612;7.510;2023-05-16T02:06:55;9.40;99.90
22698;DHT22;11516;51.612;7.510;2023-05-16T02:09:21;9.30;99.90
22698;DHT22;11516;51.612;7.510;2023-05-16T02:11:47;9.20;99.90
22698;DHT22;11516;51.612;7.510;2023-05-16T02:14:13;9.20;99.90
22698;DHT22;11516;51.612;7.510;2023-05-16T02:16:38;9.20;99.90
22698;DHT22;11516;51.612;7.510;2023-05-16T02:19:04;9.20;99.90
22698;DHT22;11516;51.612;7.510;2023-05-16T02:21:30;9.20;99.90
22698;DHT22;11516;51.612;7.510;2023-05-16T02:23:55;9.10;99.90
22698;DHT22;11516;51.612;7.510;2023-05-16T02:26:21;9.20;99.90
22698;DHT22;11516;51.612;7.510;2023-05-16T02:28:47;9.20;99.90
22698;DHT22;11516;51.612;7.510;2023-05-16T02:31:25;9.10;99.90
22698;DHT22;11516;51.612;7.510;2023-05-16T02:33:50;9.10;99.90
22698;DHT22;11516;51.612;7.510;2023-05-16T02:36:16;9.20;99.90
22698;DHT22;11516;51.612;7.510;2023-05-16T02:38:41;9.20;99.90
22698;DHT22;11516;51.612;7.510;2023-05-16T02:41:07;9.20;99.90
22698;DHT22;11516;51.612;7.510;2023-05-16T02:43:32;9.30;99.90
22698;DHT22;11516;51.612;7.510;2023-05-16T02:45:58;9.30;99.90
22698;DHT22;11516;51.612;7.510;2023-05-16T02:48:23;9.30;99.90
22698;DHT22;11516;51.612;7.510;2023-05-16T02:50:49;9.30;99.90
22698;DHT22;11516;51.612;7.510;2023-05-16T02:53:15;9.20;99.90
22698;DHT22;11516;51.612;7.510;2023-05-16T02:55:40;9.20;99.90
22698;DHT22;11516;51.612;7.510;2023-05-16T02:58:06;9.20;99.90
22698;DHT22;11516;51.612;7.510;2023-05-16T03:00:32;9.30;99.90
22698;DHT22;11516;51.612;7.510;2023-05-16T03:02:58;9.30;99.90
22698;DHT22;11516;51.612;7.510;2023-05-16T03:05:23;9.20;99.90
22698;DHT22;11516;51.612;7.510;2023-05-16T03:07:49;9.30;99.90
22698;DHT22;11516;51.612;7.510;2023-05-16T03:10:14;9.30;99.90
22698;DHT22;11516;51.612;7.510;2023-05-16T03:12:40;9.30;99.90
22698;DHT22;11516;51.612;7.510;2023-05-16T03:15:06;9.40;99.90
22698;DHT22;11516;51.612;7.510;2023-05-16T03:17:33;9.50;99.90
22698;DHT22;11516;51.612;7.510;2023-05-16T03:19:59;9.30;99.90
22698;DHT22;11516;51.612;7.510;2023-05-16T03:22:24;9.40;99.90
22698;DHT22;11516;51.612;7.510;2023-05-16T03:24:50;9.30;99.90
22698;DHT22;11516;51.612;7.510;2023-05-16T03:27:15;9.30;99.90
22698;DHT22;11516;51.612;7.510;2023-05-16T03:29:41;9.30;99.90
22698;DHT22;11516;51.612;7.510;2023-05-16T03:32:06;9.30;99.90
22698;DHT22;11516;51.612;7.510;2023-05-16T03:34:32;9.30;99.90
22698;DHT22;11516;51.612;7.510;2023-05-16T03:36:58;9.20;99.90
22698;DHT22;11516;51.612;7.510;2023-05-16T03:39:23;9.20;99.90
22698;DHT22;11516;51.612;7.510;2023-05-16T03:41:49;9.20;99.90
22698;DHT22;11516;51.612;7.510;2023-05-16T03:44:16;9.20;99.90
22698;DHT22;11516;51.612;7.510;2023-05-16T03:46:41;9.20;99.90
22698;DHT22;11516;51.612;7.510;2023-05-16T03:49:07;9.10;99.90
22698;DHT22;11516;51.612;7.510;2023-05-16T03:51:32;9.10;99.90
22698;DHT22;11516;51.612;7.510;2023-05-16T03:53:58;9.10;99.90
22698;DHT22;11516;51.612;7.510;2023-05-16T03:56:24;9.10;99.90
22698;DHT22;11516;51.612;7.510;2023-05-16T03:58:50;9.00;99.90
22698;DHT22;11516;51.612;7.510;2023-05-16T04:01:15;9.70;99.90
22698;DHT22;11516;51.612;7.510;2023-05-16T04:03:41;9.00;99.90
22698;DHT22;11516;51.612;7.510;2023-05-16T04:06:06;9.00;99.90
22698;DHT22;11516;51.612;7.510;2023-05-16T04:08:33;9.00;99.90
22698;DHT22;11516;51.612;7.510;2023-05-16T04:10:58;9.00;99.90
22698;DHT22;11516;51.612;7.510;2023-05-16T04:13:24;9.00;99.90
22698;DHT22;11516;51.612;7.510;2023-05-16T04:15:50;9.00;99.90
22698;DHT22;11516;51.612;7.510;2023-05-16T04:18:15;8.90;99.90
22698;DHT22;11516;51.612;7.510;2023-05-16T04:20:41;8.90;99.90
22698;DHT22;11516;51.612;7.510;2023-05-16T04:23:07;8.80;99.90
22698;DHT22;11516;51.612;7.510;2023-05-16T04:25:35;8.80;99.90
22698;DHT22;11516;51.612;7.510;2023-05-16T04:28:00;8.80;99.90
22698;DHT22;11516;51.612;7.510;2023-05-16T04:30:26;8.70;99.90
22698;DHT22;11516;51.612;7.510;2023-05-16T04:32:51;8.70;99.90
22698;DHT22;11516;51.612;7.510;2023-05-16T04:35:17;8.70;99.90
22698;DHT22;11516;51.612;7.510;2023-05-16T04:37:43;8.80;99.90
22698;DHT22;11516;51.612;7.510;2023-05-16T04:40:08;8.70;99.90
22698;DHT22;11516;51.612;7.510;2023-05-16T04:42:34;8.80;99.90
22698;DHT22;11516;51.612;7.510;2023-05-16T04:45:00;8.70;99.90
22698;DHT22;11516;51.612;7.510;2023-05-16T04:47:25;8.70;99.90
22698;DHT22;11516;51.612;7.510;2023-05-16T04:49:51;9.50;99.90
22698;DHT22;11516;51.612;7.510;2023-05-16T04:52:17;8.70;99.90
22698;DHT22;11516;51.612;7.510;2023-05-16T04:54:42;8.70;99.90
22698;DHT22;11516;51.612;7.510;2023-05-16T04:57:08;8.60;99.90
22698;DHT22;11516;51.612;7.510;2023-05-16T04:59:34;8.70;99.90
22698;DHT22;11516;51.612;7.510;2023-05-16T05:01:59;8.80;99.90
22698;DHT22;11516;51.612;7.510;2023-05-16T05:04:25;8.80;99.90
22698;DHT22;11516;51.612;7.510;2023-05-16T05:06:50;8.90;99.90
22698;DHT22;11516;51.612;7.510;2023-05-16T05:09:16;8.90;99.90
22698;DHT22;11516;51.612;7.510;2023-05-16T05:11:42;8.90;99.90
22698;DHT22;11516;51.612;7.510;2023-05-16T05:14:07;8.90;99.90
22698;DHT22;11516;51.612;7.510;2023-05-16T05:16:33;9.00;99.90
22698;DHT22;11516;51.612;7.510;2023-05-16T05:18:59;9.00;99.90
22698;DHT22;11516;51.612;7.510;2023-05-16T05:21:24;9.10;99.90
22698;DHT22;11516;51.612;7.510;2023-05-16T05:23:50;9.10;99.90
22698;DHT22;11516;51.612;7.510;2023-05-16T05:26:16;9.00;99.90
22698;DHT22;11516;51.612;7.510;2023-05-16T05:28:42;9.10;99.90
22698;DHT22;11516;51.612;7.510;2023-05-16T05:31:07;9.10;99.90
22698;DHT22;11516;51.612;7.510;2023-05-16T05:33:33;9.20;99.90
22698;DHT22;11516;51.612;7.510;2023-05-16T05:35:59;9.30;99.90
22698;DHT22;11516;51.612;7.510;2023-05-16T05:38:24;9.30;99.90
22698;DHT22;11516;51.612;7.510;2023-05-16T05:40:50;9.30;99.90
22698;DHT22;11516;51.612;7.510;2023-05-16T05:43:16;9.20;99.90
22698;DHT22;11516;51.612;7.510;2023-05-16T05:45:42;9.20;99.90
22698;DHT22;11516;51.612;7.510;2023-05-16T05:48:08;9.10;99.90
22698;DHT22;11516;51.612;7.510;2023-05-16T05:50:35;9.20;99.90
22698;DHT22;11516;51.612;7.510;2023-05-16T05:53:00;9.30;99.90
22698;DHT22;11516;51.612;7.510;2023-05-16T05:55:26;9.40;99.90
22698;DHT22;11516;51.612;7.510;2023-05-16T05:57:51;9.40;99.90
22698;DHT22;11516;51.612;7.510;2023-05-16T06:00:17;9.40;99.90
22698;DHT22;11516;51.612;7.510;2023-05-16T06:02:43;9.30;99.90
22698;DHT22;11516;51.612;7.510;2023-05-16T06:05:08;9.40;99.90
22698;DHT22;11516;51.612;7.510;2023-05-16T06:07:34;9.40;99.90
22698;DHT22;11516;51.612;7.510;2023-05-16T06:10:00;9.50;99.90
22698;DHT22;11516;51.612;7.510;2023-05-16T06:12:28;9.50;99.90
22698;DHT22;11516;51.612;7.510;2023-05-16T06:14:54;9.50;99.90
22698;DHT22;11516;51.612;7.510;2023-05-16T06:17:20;9.70;99.90
22698;DHT22;11516;51.612;7.510;2023-05-16T06:19:46;9.80;99.90
22698;DHT22;11516;51.612;7.510;2023-05-16T06:22:11;9.80;99.90
22698;DHT22;11516;51.612;7.510;2023-05-16T06:24:37;9.90;99.90
22698;DHT22;11516;51.612;7.510;2023-05-16T06:27:21;9.80;99.90
22698;DHT22;11516;51.612;7.510;2023-05-16T06:29:47;10.00;99.90
22698;DHT22;11516;51.612;7.510;2023-05-16T06:32:12;9.90;99.90
22698;DHT22;11516;51.612;7.510;2023-05-16T06:34:38;10.10;99.90
22698;DHT22;11516;51.612;7.510;2023-05-16T06:37:03;10.20;99.90
22698;DHT22;11516;51.612;7.510;2023-05-16T06:39:29;10.30;99.90
22698;DHT22;11516;51.612;7.510;2023-05-16T06:41:54;10.40;99.90
22698;DHT22;11516;51.612;7.510;2023-05-16T06:44:22;10.50;99.90
22698;DHT22;11516;51.612;7.510;2023-05-16T06:46:47;10.50;99.90
22698;DHT22;11516;51.612;7.510;2023-05-16T06:49:13;10.40;99.90
22698;DHT22;11516;51.612;7.510;2023-05-16T06:51:38;10.50;99.90
22698;DHT22;11516;51.612;7.510;2023-05-16T06:54:04;10.70;99.90
22698;DHT22;11516;51.612;7.510;2023-05-16T06:56:30;10.70;99.90
22698;DHT22;11516;51.612;7.510;2023-05-16T06:58:56;11.10;99.90
22698;DHT22;11516;51.612;7.510;2023-05-16T07:01:21;11.00;99.90
22698;DHT22;11516;51.612;7.510;2023-05-16T07:03:47;11.10;99.90
22698;DHT22;11516;51.612;7.510;2023-05-16T07:06:12;11.20;99.90
22698;DHT22;11516;51.612;7.510;2023-05-16T07:08:38;11.20;99.90
22698;DHT22;11516;51.612;7.510;2023-05-16T07:11:03;11.20;99.90
22698;DHT22;11516;51.612;7.510;2023-05-16T07:13:29;11.00;99.90
22698;DHT22;11516;51.612;7.510;2023-05-16T07:15:54;10.90;99.90
22698;DHT22;11516;51.612;7.510;2023-05-16T07:18:20;10.90;99.90
22698;DHT22;11516;51.612;7.510;2023-05-16T07:20:45;10.60;99.90
22698;DHT22;11516;51.612;7.510;2023-05-16T07:23:11;10.50;99.90
22698;DHT22;11516;51.612;7.510;2023-05-16T07:25:37;10.40;99.90
22698;DHT22;11516;51.612;7.510;2023-05-16T07:28:02;10.50;99.90
22698;DHT22;11516;51.612;7.510;2023-05-16T07:30:28;10.50;99.90
22698;DHT22;11516;51.612;7.510;2023-05-16T07:32:54;10.50;99.90
22698;DHT22;11516;51.612;7.510;2023-05-16T07:35:20;10.50;99.90
22698;DHT22;11516;51.612;7.510;2023-05-16T07:37:46;10.50;99.90
22698;DHT22;11516;51.612;7.510;2023-05-16T07:40:12;10.80;99.90
22698;DHT22;11516;51.612;7.510;2023-05-16T07:42:37;11.00;99.90
22698;DHT22;11516;51.612;7.510;2023-05-16T07:45:04;11.30;99.90
22698;DHT22;11516;51.612;7.510;2023-05-16T07:47:31;11.40;99.90
22698;DHT22;11516;51.612;7.510;2023-05-16T07:49:56;11.40;99.90
22698;DHT22;11516;51.612;7.510;2023-05-16T07:52:22;11.50;99.90
22698;DHT22;11516;51.612;7.510;2023-05-16T07:54:47;11.50;99.90
22698;DHT22;11516;51.612;7.510;2023-05-16T07:57:14;11.60;99.90
22698;DHT22;11516;51.612;7.510;2023-05-16T07:59:39;11.50;99.90
22698;DHT22;11516;51.612;7.510;2023-05-16T08:02:05;11.40;99.90
22698;DHT22;11516;51.612;7.510;2023-05-16T08:04:31;11.30;99.90
22698;DHT22;11516;51.612;7.510;2023-05-16T08:06:56;11.30;99.90
22698;DHT22;11516;51.612;7.510;2023-05-16T08:09:22;11.40;99.90
22698;DHT22;11516;51.612;7.510;2023-05-16T08:11:47;11.50;99.90
22698;DHT22;11516;51.612;7.510;2023-05-16T08:14:13;11.60;99.90
22698;DHT22;11516;51.612;7.510;2023-05-16T08:16:38;11.50;99.90
22698;DHT22;11516;51.612;7.510;2023-05-16T08:19:04;11.70;99.90
22698;DHT22;11516;51.612;7.510;2023-05-16T08:21:30;11.80;99.90
22698;DHT22;11516;51.612;7.510;2023-05-16T08:23:56;12.00;99.90
22698;DHT22;11516;51.612;7.510;2023-05-16T08:26:21;12.30;99.90
22698;DHT22;11516;51.612;7.510;2023-05-16T08:28:47;12.40;99.90
22698;DHT22;11516;51.612;7.510;2023-05-16T08:31:13;12.30;99.90
22698;DHT22;11516;51.612;7.510;2023-05-16T08:33:38;11.90;99.90
22698;DHT22;11516;51.612;7.510;2023-05-16T08:36:04;11.80;99.90
22698;DHT22;11516;51.612;7.510;2023-05-16T08:38:30;11.90;99.90
22698;DHT22;11516;51.612;7.510;2023-05-16T08:40:56;11.70;99.90
22698;DHT22;11516;51.612;7.510;2023-05-16T08:43:22;12.00;99.90
22698;DHT22;11516;51.612;7.510;2023-05-16T08:45:47;12.20;99.90
22698;DHT22;11516;51.612;7.510;2023-05-16T08:48:14;12.30;99.90
22698;DHT22;11516;51.612;7.510;2023-05-16T08:50:41;12.10;99.90
22698;DHT22;11516;51.612;7.510;2023-05-16T08:53:08;12.10;99.90
22698;DHT22;11516;51.612;7.510;2023-05-16T08:55:37;12.10;99.90
22698;DHT22;11516;51.612;7.510;2023-05-16T08:58:03;12.00;99.90
22698;DHT22;11516;51.612;7.510;2023-05-16T09:00:29;12.20;99.90
22698;DHT22;11516;51.612;7.510;2023-05-16T09:02:55;12.40;99.90
22698;DHT22;11516;51.612;7.510;2023-05-16T09:05:22;12.60;99.90
22698;DHT22;11516;51.612;7.510;2023-05-16T09:07:48;12.60;99.90
22698;DHT22;11516;51.612;7.510;2023-05-16T09:10:14;12.80;99.90
22698;DHT22;11516;51.612;7.510;2023-05-16T09:12:41;12.90;99.90
22698;DHT22;11516;51.612;7.510;2023-05-16T09:15:08;13.00;99.90
22698;DHT22;11516;51.612;7.510;2023-05-16T09:17:43;13.10;99.90
22698;DHT22;11516;51.612;7.510;2023-05-16T09:20:14;13.20;99.90
22698;DHT22;11516;51.612;7.510;2023-05-16T09:22:52;13.40;99.90
22698;DHT22;11516;51.612;7.510;2023-05-16T09:25:19;13.50;99.90
22698;DHT22;11516;51.612;7.510;2023-05-16T09:27:46;13.40;99.90
22698;DHT22;11516;51.612;7.510;2023-05-16T09:30:14;13.50;99.90
22698;DHT22;11516;51.612;7.510;2023-05-16T09:32:43;13.50;99.90
22698;DHT22;11516;51.612;7.510;2023-05-16T09:35:13;13.40;99.90
22698;DHT22;11516;51.612;7.510;2023-05-16T09:37:46;13.30;99.90
22698;DHT22;11516;51.612;7.510;2023-05-16T09:40:12;13.10;99.90
22698;DHT22;11516;51.612;7.510;2023-05-16T09:42:38;13.00;99.90
22698;DHT22;11516;51.612;7.510;2023-05-16T09:45:04;13.20;99.90
22698;DHT22;11516;51.612;7.510;2023-05-16T09:47:30;13.20;99.90
22698;DHT22;11516;51.612;7.510;2023-05-16T09:49:56;13.20;99.90
22698;DHT22;11516;51.612;7.510;2023-05-16T09:52:21;13.10;99.90
22698;DHT22;11516;51.612;7.510;2023-05-16T09:54:50;13.20;99.90
22698;DHT22;11516;51.612;7.510;2023-05-16T09:57:20;13.30;99.90
22698;DHT22;11516;51.612;7.510;2023-05-16T09:59:46;13.50;99.90
22698;DHT22;11516;51.612;7.510;2023-05-16T10:02:12;13.70;99.90
22698;DHT22;11516;51.612;7.510;2023-05-16T10:04:38;13.70;99.90
22698;DHT22;11516;51.612;7.510;2023-05-16T10:07:05;13.80;99.90
22698;DHT22;11516;51.612;7.510;2023-05-16T10:09:35;13.80;99.90
22698;DHT22;11516;51.612;7.510;2023-05-16T10:12:02;13.90;99.90
22698;DHT22;11516;51.612;7.510;2023-05-16T10:14:33;13.90;99.90
22698;DHT22;11516;51.612;7.510;2023-05-16T10:16:59;14.00;99.90
22698;DHT22;11516;51.612;7.510;2023-05-16T10:19:25;13.90;99.90
22698;DHT22;11516;51.612;7.510;2023-05-16T10:21:55;13.80;99.90
22698;DHT22;11516;51.612;7.510;2023-05-16T10:24:30;13.60;99.90
22698;DHT22;11516;51.612;7.510;2023-05-16T10:26:59;13.30;99.90
22698;DHT22;11516;51.612;7.510;2023-05-16T10:29:25;13.40;99.90
22698;DHT22;11516;51.612;7.510;2023-05-16T10:31:51;13.70;99.90
22698;DHT22;11516;51.612;7.510;2023-05-16T10:34:17;13.90;99.90
22698;DHT22;11516;51.612;7.510;2023-05-16T10:36:43;13.90;99.90
22698;DHT22;11516;51.612;7.510;2023-05-16T10:39:11;13.90;99.90
22698;DHT22;11516;51.612;7.510;2023-05-16T10:41:37;14.20;99.90
22698;DHT22;11516;51.612;7.510;2023-05-16T10:44:12;14.50;99.90
22698;DHT22;11516;51.612;7.510;2023-05-16T10:46:39;14.80;99.90
22698;DHT22;11516;51.612;7.510;2023-05-16T10:49:25;14.70;99.60
22698;DHT22;11516;51.612;7.510;2023-05-16T10:52:08;14.80;99.50
22698;DHT22;11516;51.612;7.510;2023-05-16T10:54:38;14.90;98.30
22698;DHT22;11516;51.612;7.510;2023-05-16T10:57:24;15.00;99.90
22698;DHT22;11516;51.612;7.510;2023-05-16T10:59:59;15.10;99.20
22698;DHT22;11516;51.612;7.510;2023-05-16T11:02:33;15.80;99.20
22698;DHT22;11516;51.612;7.510;2023-05-16T11:05:05;15.90;95.70
22698;DHT22;11516;51.612;7.510;2023-05-16T11:07:35;16.50;95.60
22698;DHT22;11516;51.612;7.510;2023-05-16T11:10:14;17.20;92.70
22698;DHT22;11516;51.612;7.510;2023-05-16T11:12:45;18.20;87.70
22698;DHT22;11516;51.612;7.510;2023-05-16T11:15:23;18.40;86.60
22698;DHT22;11516;51.612;7.510;2023-05-16T11:17:50;18.50;81.70
22698;DHT22;11516;51.612;7.510;2023-05-16T11:20:26;18.80;82.50
22698;DHT22;11516;51.612;7.510;2023-05-16T11:25:56;18.40;82.70
22698;DHT22;11516;51.612;7.510;2023-05-16T11:28:24;18.10;79.70
22698;DHT22;11516;51.612;7.510;2023-05-16T11:30:53;17.30;83.10
22698;DHT22;11516;51.612;7.510;2023-05-16T11:33:21;17.00;85.80
22698;DHT22;11516;51.612;7.510;2023-05-16T11:36:07;16.30;86.10
22698;DHT22;11516;51.612;7.510;2023-05-16T11:38:33;15.40;89.40
22698;DHT22;11516;51.612;7.510;2023-05-16T11:41:06;14.90;90.80
22698;DHT22;11516;51.612;7.510;2023-05-16T11:43:43;14.70;91.80
22698;DHT22;11516;51.612;7.510;2023-05-16T11:46:12;14.50;91.80
22698;DHT22;11516;51.612;7.510;2023-05-16T11:48:39;14.20;92.90
22698;DHT22;11516;51.612;7.510;2023-05-16T11:51:05;13.90;94.10
22698;DHT22;11516;51.612;7.510;2023-05-16T11:53:31;13.80;95.30
22698;DHT22;11516;51.612;7.510;2023-05-16T11:55:58;14.00;95.60
22698;DHT22;11516;51.612;7.510;2023-05-16T11:58:25;14.00;95.90
22698;DHT22;11516;51.612;7.510;2023-05-16T12:00:51;14.00;96.00
22698;DHT22;11516;51.612;7.510;2023-05-16T12:03:18;14.60;95.40
22698;DHT22;11516;51.612;7.510;2023-05-16T12:05:52;15.20;94.70
22698;DHT22;11516;51.612;7.510;2023-05-16T12:08:21;15.80;92.10
22698;DHT22;11516;51.612;7.510;2023-05-16T12:10:49;16.20;92.30
22698;DHT22;11516;51.612;7.510;2023-05-16T12:13:16;17.40;90.70
22698;DHT22;11516;51.612;7.510;2023-05-16T12:15:42;17.40;87.40
22698;DHT22;11516;51.612;7.510;2023-05-16T12:18:09;17.60;88.80
22698;DHT22;11516;51.612;7.510;2023-05-16T12:20:35;18.30;89.40
22698;DHT22;11516;51.612;7.510;2023-05-16T12:23:01;18.20;83.60
22698;DHT22;11516;51.612;7.510;2023-05-16T12:25:31;18.40;80.70
22698;DHT22;11516;51.612;7.510;2023-05-16T12:27:59;17.30;80.80
22698;DHT22;11516;51.612;7.510;2023-05-16T12:30:25;18.20;85.60
22698;DHT22;11516;51.612;7.510;2023-05-16T12:33:17;18.40;79.90
22698;DHT22;11516;51.612;7.510;2023-05-16T12:35:45;17.60;81.90
22698;DHT22;11516;51.612;7.510;2023-05-16T12:38:13;17.70;83.80
22698;DHT22;11516;51.612;7.510;2023-05-16T12:40:40;17.20;83.90
22698;DHT22;11516;51.612;7.510;2023-05-16T12:43:16;16.90;87.20
22698;DHT22;11516;51.612;7.510;2023-05-16T12:45:51;16.50;86.90
22698;DHT22;11516;51.612;7.510;2023-05-16T12:48:17;16.00;90.40
22698;DHT22;11516;51.612;7.510;2023-05-16T12:50:43;16.20;87.10
22698;DHT22;11516;51.612;7.510;2023-05-16T12:53:15;15.90;89.00
22698;DHT22;11516;51.612;7.510;2023-05-16T12:55:42;17.00;87.10
22698;DHT22;11516;51.612;7.510;2023-05-16T12:58:08;18.00;85.10
22698;DHT22;11516;51.612;7.510;2023-05-16T13:00:34;18.80;85.60
22698;DHT22;11516;51.612;7.510;2023-05-16T13:03:06;19.20;79.60
22698;DHT22;11516;51.612;7.510;2023-05-16T13:05:32;18.60;80.80
22698;DHT22;11516;51.612;7.510;2023-05-16T13:07:57;18.80;76.40
22698;DHT22;11516;51.612;7.510;2023-05-16T13:10:23;18.50;78.20
22698;DHT22;11516;51.612;7.510;2023-05-16T13:12:50;19.20;78.00
22698;DHT22;11516;51.612;7.510;2023-05-16T13:15:15;19.50;76.30
22698;DHT22;11516;51.612;7.510;2023-05-16T13:17:42;19.20;76.60
22698;DHT22;11516;51.612;7.510;2023-05-16T13:20:10;20.10;74.70
22698;DHT22;11516;51.612;7.510;2023-05-16T13:22:39;20.20;72.40
22698;DHT22;11516;51.612;7.510;2023-05-16T13:25:06;18.90;71.90
22698;DHT22;11516;51.612;7.510;2023-05-16T13:27:32;18.10;70.90
22698;DHT22;11516;51.612;7.510;2023-05-16T13:29:58;17.50;74.20
22698;DHT22;11516;51.612;7.510;2023-05-16T13:32:24;17.30;75.30
22698;DHT22;11516;51.612;7.510;2023-05-16T13:34:50;17.20;76.30
22698;DHT22;11516;51.612;7.510;2023-05-16T13:37:16;17.20;79.00
22698;DHT22;11516;51.612;7.510;2023-05-16T13:39:42;16.60;75.80
22698;DHT22;11516;51.612;7.510;2023-05-16T13:42:07;16.30;78.40
22698;DHT22;11516;51.612;7.510;2023-05-16T13:44:33;16.70;78.50
22698;DHT22;11516;51.612;7.510;2023-05-16T13:46:59;16.00;79.30
22698;DHT22;11516;51.612;7.510;2023-05-16T13:49:24;16.00;79.20
22698;DHT22;11516;51.612;7.510;2023-05-16T13:51:50;16.30;79.80
22698;DHT22;11516;51.612;7.510;2023-05-16T13:54:17;16.30;79.90
22698;DHT22;11516;51.612;7.510;2023-05-16T13:56:43;16.10;79.80
22698;DHT22;11516;51.612;7.510;2023-05-16T13:59:09;16.00;79.70
22698;DHT22;11516;51.612;7.510;2023-05-16T14:01:35;16.00;81.90
22698;DHT22;11516;51.612;7.510;2023-05-16T14:04:01;15.90;82.90
22698;DHT22;11516;51.612;7.510;2023-05-16T14:06:27;15.60;83.50
22698;DHT22;11516;51.612;7.510;2023-05-16T14:08:53;15.50;83.40
22698;DHT22;11516;51.612;7.510;2023-05-16T14:11:18;15.60;84.50
22698;DHT22;11516;51.612;7.510;2023-05-16T14:13:44;15.60;84.60
22698;DHT22;11516;51.612;7.510;2023-05-16T14:16:10;15.80;84.20
22698;DHT22;11516;51.612;7.510;2023-05-16T14:18:36;16.80;85.80
22698;DHT22;11516;51.612;7.510;2023-05-16T14:21:01;17.50;82.20
22698;DHT22;11516;51.612;7.510;2023-05-16T14:23:27;17.60;80.30
22698;DHT22;11516;51.612;7.510;2023-05-16T14:25:53;16.90;80.70
22698;DHT22;11516;51.612;7.510;2023-05-16T14:28:18;16.80;81.10
22698;DHT22;11516;51.612;7.510;2023-05-16T14:30:44;16.50;81.10
22698;DHT22;11516;51.612;7.510;2023-05-16T14:33:09;16.20;82.80
22698;DHT22;11516;51.612;7.510;2023-05-16T14:35:35;16.20;83.10
22698;DHT22;11516;51.612;7.510;2023-05-16T14:38:03;16.10;82.50
22698;DHT22;11516;51.612;7.510;2023-05-16T14:40:28;15.80;82.10
22698;DHT22;11516;51.612;7.510;2023-05-16T14:42:54;15.80;84.00
22698;DHT22;11516;51.612;7.510;2023-05-16T14:45:19;15.50;83.30
22698;DHT22;11516;51.612;7.510;2023-05-16T14:47:45;15.20;84.70
22698;DHT22;11516;51.612;7.510;2023-05-16T14:50:12;15.00;85.60
22698;DHT22;11516;51.612;7.510;2023-05-16T14:52:39;15.00;85.40
22698;DHT22;11516;51.612;7.510;2023-05-16T14:55:05;14.80;85.60
22698;DHT22;11516;51.612;7.510;2023-05-16T14:57:31;14.80;86.90
22698;DHT22;11516;51.612;7.510;2023-05-16T14:59:57;14.80;85.60
22698;DHT22;11516;51.612;7.510;2023-05-16T15:02:23;14.90;86.80
22698;DHT22;11516;51.612;7.510;2023-05-16T15:04:48;15.20;87.10
22698;DHT22;11516;51.612;7.510;2023-05-16T15:07:14;15.20;88.60
22698;DHT22;11516;51.612;7.510;2023-05-16T15:09:40;15.50;86.00
22698;DHT22;11516;51.612;7.510;2023-05-16T15:12:06;15.40;86.00
22698;DHT22;11516;51.612;7.510;2023-05-16T15:14:32;15.40;87.00
22698;DHT22;11516;51.612;7.510;2023-05-16T15:16:58;15.30;88.10
22698;DHT22;11516;51.612;7.510;2023-05-16T15:19:23;15.20;88.90
22698;DHT22;11516;51.612;7.510;2023-05-16T15:21:49;14.90;89.60
22698;DHT22;11516;51.612;7.510;2023-05-16T15:24:15;15.00;90.30
22698;DHT22;11516;51.612;7.510;2023-05-16T15:26:41;14.90;90.00
22698;DHT22;11516;51.612;7.510;2023-05-16T15:29:07;15.00;90.30
22698;DHT22;11516;51.612;7.510;2023-05-16T15:31:32;15.00;90.80
22698;DHT22;11516;51.612;7.510;2023-05-16T15:33:58;14.90;90.40
22698;DHT22;11516;51.612;7.510;2023-05-16T15:36:24;15.10;90.40
22698;DHT22;11516;51.612;7.510;2023-05-16T15:38:49;15.30;90.50
22698;DHT22;11516;51.612;7.510;2023-05-16T15:41:15;15.50;90.50
22698;DHT22;11516;51.612;7.510;2023-05-16T15:43:41;15.20;90.80
22698;DHT22;11516;51.612;7.510;2023-05-16T15:46:10;15.00;90.80